Time;durP1;ratioP1;P1;durP2;ratioP2;P2;SDS_P1;SDS_P2;PMS_P1;PMS_P2;Temp;Humidity;BMP_temperature;BMP_pressure;BME280_temperature;BME280_humidity;BME280_pressure;Samples;Min_cycle;Max_cycle;Signal;HPM_P1;HPM_P2
2021/10/22 00:00:27;;;;;;;10.10;3.40;;;;;;;;;;4976073;28;20055;-64
2021/10/22 00:02:53;;;;;;;8.80;3.53;;;;;;;;;;4975522;28;20061;-64
2021/10/22 00:05:20;;;;;;;7.50;3.70;;;;;;;;;;4975575;28;20449;-64
2021/10/22 00:07:47;;;;;;;6.20;3.15;;;;;;;;;;4975939;28;20449;-65
2021/10/22 00:10:14;;;;;;;9.15;3.50;;;;;;;;;;4975557;28;20101;-64
2021/10/22 00:12:41;;;;;;;9.82;3.20;;;;;;;;;;4975419;28;20062;-65
2021/10/22 00:15:09;;;;;;;8.40;3.45;;;;;;;;;;4975422;28;20054;-64
2021/10/22 00:17:37;;;;;;;6.32;3.63;;;;;;;;;;4974395;28;20054;-64
2021/10/22 00:20:07;;;;;;;5.85;3.65;;;;;;;;;;4975471;28;20093;-64
2021/10/22 00:22:33;;;;;;;6.45;3.83;;;;;;;;;;4975348;28;20568;-64
2021/10/22 00:25:00;;;;;;;8.48;3.65;;;;;;;;;;4975222;28;20046;-65
2021/10/22 00:27:27;;;;;;;7.53;3.80;;;;;;;;;;4975436;28;20050;-64
2021/10/22 00:29:53;;;;;;;11.70;4.30;;;;;;;;;;4975300;28;20047;-65
2021/10/22 00:32:20;;;;;;;10.40;3.83;;;;;;;;;;4974921;28;20113;-65
2021/10/22 00:34:47;;;;;;;8.05;3.47;;;;;;;;;;4974610;28;20058;-64
2021/10/22 00:37:13;;;;;;;7.30;3.72;;;;;;;;;;4974450;28;20072;-64
2021/10/22 00:39:40;;;;;;;9.60;4.43;;;;;;;;;;4975042;28;20058;-64
2021/10/22 00:42:07;;;;;;;12.60;4.38;;;;;;;;;;4974952;28;20394;-64
2021/10/22 00:44:34;;;;;;;8.50;4.22;;;;;;;;;;4975073;28;20051;-64
2021/10/22 00:47:01;;;;;;;7.20;4.28;;;;;;;;;;4974650;28;20051;-64
2021/10/22 00:49:28;;;;;;;12.32;4.75;;;;;;;;;;4975051;28;20047;-64
2021/10/22 00:51:54;;;;;;;9.35;4.22;;;;;;;;;;4974735;28;20058;-64
2021/10/22 00:54:21;;;;;;;7.28;4.15;;;;;;;;;;4973835;28;20461;-64
2021/10/22 00:56:48;;;;;;;10.25;5.00;;;;;;;;;;4974887;28;20101;-64
2021/10/22 00:59:16;;;;;;;9.77;5.07;;;;;;;;;;4974598;28;20046;-64
2021/10/22 01:01:43;;;;;;;8.63;4.82;;;;;;;;;;4974522;28;20055;-64
2021/10/22 01:04:10;;;;;;;10.32;3.97;;;;;;;;;;4974722;28;20051;-64
2021/10/22 01:06:41;;;;;;;9.68;4.32;;;;;;;;;;4974641;28;20058;-64
2021/10/22 01:09:08;;;;;;;7.60;4.43;;;;;;;;;;4973396;28;20047;-64
2021/10/22 01:11:36;;;;;;;9.60;5.15;;;;;;;;;;4974448;28;20118;-64
2021/10/22 01:14:02;;;;;;;6.53;4.30;;;;;;;;;;4974651;28;20054;-64
2021/10/22 01:16:29;;;;;;;7.75;4.45;;;;;;;;;;4974424;28;20059;-64
2021/10/22 01:18:56;;;;;;;6.75;3.72;;;;;;;;;;4974333;28;20051;-64
2021/10/22 01:21:23;;;;;;;8.93;4.40;;;;;;;;;;4974053;28;20050;-65
2021/10/22 01:31:23;;;;;;;6.60;3.92;;;;;;;;;;4974298;28;20169;-64
2021/10/22 01:33:50;;;;;;;8.05;4.22;;;;;;;;;;4974003;28;20054;-64
2021/10/22 01:36:17;;;;;;;7.20;3.85;;;;;;;;;;4973968;28;20055;-64
2021/10/22 01:38:44;;;;;;;7.05;4.07;;;;;;;;;;4974065;28;20101;-64
2021/10/22 01:41:11;;;;;;;7.88;4.22;;;;;;;;;;4973907;28;20082;-65
2021/10/22 01:43:41;;;;;;;6.50;4.47;;;;;;;;;;4973763;28;20469;-65
2021/10/22 01:46:08;;;;;;;9.77;4.03;;;;;;;;;;4973552;28;20055;-65
2021/10/22 01:48:35;;;;;;;6.38;3.95;;;;;;;;;;4974012;28;20644;-65
2021/10/22 01:51:03;;;;;;;6.22;4.15;;;;;;;;;;4973742;28;20461;-65
2021/10/22 01:53:30;;;;;;;7.68;3.97;;;;;;;;;;4973467;28;20051;-65
2021/10/22 01:55:56;;;;;;;7.82;3.92;;;;;;;;;;4973675;28;20055;-65
2021/10/22 01:58:23;;;;;;;7.00;3.75;;;;;;;;;;4956477;28;20553;-65
2021/10/22 02:00:50;;;;;;;5.78;3.72;;;;;;;;;;4973752;28;20050;-65
2021/10/22 02:03:17;;;;;;;5.65;3.78;;;;;;;;;;4973297;28;20077;-64
2021/10/22 02:05:43;;;;;;;12.38;4.60;;;;;;;;;;4973442;28;20097;-65
2021/10/22 02:08:10;;;;;;;4.88;3.17;;;;;;;;;;4973665;28;20055;-65
2021/10/22 02:10:37;;;;;;;8.55;3.92;;;;;;;;;;4973518;28;20050;-65
2021/10/22 02:13:03;;;;;;;7.05;3.63;;;;;;;;;;4973164;28;20102;-64
2021/10/22 02:15:30;;;;;;;8.73;3.67;;;;;;;;;;4973664;28;20050;-65
2021/10/22 02:17:57;;;;;;;8.35;3.45;;;;;;;;;;4973310;28;20422;-64
2021/10/22 02:20:24;;;;;;;9.93;3.83;;;;;;;;;;4973214;28;20050;-65
2021/10/22 02:22:50;;;;;;;9.75;3.90;;;;;;;;;;4973129;28;20062;-65
2021/10/22 02:25:18;;;;;;;5.47;3.22;;;;;;;;;;4973186;28;20101;-65
2021/10/22 02:27:45;;;;;;;6.25;4.20;;;;;;;;;;4973278;28;20109;-65
2021/10/22 02:30:21;;;;;;;6.20;3.47;;;;;;;;;;4973104;28;20448;-64
2021/10/22 02:32:48;;;;;;;11.73;4.28;;;;;;;;;;4972980;28;20098;-64
2021/10/22 02:35:15;;;;;;;11.60;4.03;;;;;;;;;;4972980;28;20464;-65
2021/10/22 02:37:45;;;;;;;11.75;4.00;;;;;;;;;;4973245;28;20453;-65
2021/10/22 02:40:13;;;;;;;10.18;3.80;;;;;;;;;;4972992;28;20054;-64
2021/10/22 02:42:39;;;;;;;8.15;4.20;;;;;;;;;;4972930;28;20050;-65
2021/10/22 02:45:06;;;;;;;5.70;3.70;;;;;;;;;;4972832;28;20121;-65
2021/10/22 02:47:33;;;;;;;10.30;3.65;;;;;;;;;;4973169;28;20051;-64
2021/10/22 02:50:00;;;;;;;14.07;4.15;;;;;;;;;;4972853;28;20054;-64
2021/10/22 02:52:26;;;;;;;5.40;3.40;;;;;;;;;;4972618;28;20059;-64
2021/10/22 02:54:53;;;;;;;8.35;3.80;;;;;;;;;;4972990;28;20054;-64
2021/10/22 02:57:20;;;;;;;10.52;4.30;;;;;;;;;;4973071;28;20138;-64
2021/10/22 02:59:46;;;;;;;11.45;4.80;;;;;;;;;;4975301;28;20541;-64
2021/10/22 03:02:13;;;;;;;10.73;3.92;;;;;;;;;;4976604;28;20101;-64
2021/10/22 03:04:40;;;;;;;8.93;3.20;;;;;;;;;;4976940;28;20418;-64
2021/10/22 03:07:06;;;;;;;10.10;3.65;;;;;;;;;;4976823;28;20097;-64
2021/10/22 03:09:35;;;;;;;9.40;3.50;;;;;;;;;;4976723;28;20042;-64
2021/10/22 03:12:02;;;;;;;10.55;3.80;;;;;;;;;;4976631;28;20051;-64
2021/10/22 03:14:29;;;;;;;11.00;4.13;;;;;;;;;;4976546;28;20109;-64
2021/10/22 03:16:55;;;;;;;9.13;4.68;;;;;;;;;;4976514;28;20121;-64
2021/10/22 03:19:22;;;;;;;9.50;4.32;;;;;;;;;;4976404;28;20499;-64
2021/10/22 03:21:49;;;;;;;10.80;4.65;;;;;;;;;;4976446;28;20051;-64
2021/10/22 03:24:16;;;;;;;9.40;4.50;;;;;;;;;;4976396;28;20058;-64
2021/10/22 03:26:42;;;;;;;13.23;4.63;;;;;;;;;;4976479;28;20047;-64
2021/10/22 03:29:09;;;;;;;6.30;3.83;;;;;;;;;;4976412;28;20046;-64
2021/10/22 03:31:36;;;;;;;5.50;3.45;;;;;;;;;;4976279;28;20083;-64
2021/10/22 03:34:02;;;;;;;9.88;4.28;;;;;;;;;;4976232;28;20109;-64
2021/10/22 03:36:29;;;;;;;5.57;3.35;;;;;;;;;;4976119;28;20469;-64
2021/10/22 03:38:56;;;;;;;8.68;3.78;;;;;;;;;;4976068;28;20043;-64
2021/10/22 03:41:22;;;;;;;10.30;4.53;;;;;;;;;;4975918;28;20077;-64
2021/10/22 03:43:49;;;;;;;10.10;4.20;;;;;;;;;;4976091;28;20055;-64
2021/10/22 03:46:15;;;;;;;9.48;4.18;;;;;;;;;;4975927;28;20047;-64
2021/10/22 03:48:42;;;;;;;8.10;4.10;;;;;;;;;;4976008;28;20043;-64
2021/10/22 03:51:09;;;;;;;9.75;3.90;;;;;;;;;;4975881;28;20054;-64
2021/10/22 03:53:36;;;;;;;10.05;4.30;;;;;;;;;;4975831;28;20047;-64
2021/10/22 03:56:02;;;;;;;11.95;4.60;;;;;;;;;;4958604;28;20059;-64
2021/10/22 03:58:29;;;;;;;16.20;4.35;;;;;;;;;;4976054;28;20550;-64
2021/10/22 04:00:56;;;;;;;18.80;4.90;;;;;;;;;;4975806;28;20118;-64
2021/10/22 04:03:24;;;;;;;10.73;4.80;;;;;;;;;;4975464;28;20085;-64
2021/10/22 04:05:51;;;;;;;8.85;5.13;;;;;;;;;;4975707;28;20082;-64
2021/10/22 04:08:19;;;;;;;14.68;5.25;;;;;;;;;;4975723;28;20473;-64
2021/10/22 04:10:46;;;;;;;12.73;5.80;;;;;;;;;;4975383;28;20046;-64
2021/10/22 04:13:13;;;;;;;19.42;5.80;;;;;;;;;;4975308;28;20051;-64
2021/10/22 04:15:40;;;;;;;15.23;6.55;;;;;;;;;;4975482;28;20502;-64
2021/10/22 04:18:06;;;;;;;15.68;5.38;;;;;;;;;;4975463;28;20459;-64
2021/10/22 04:20:33;;;;;;;16.58;5.63;;;;;;;;;;4975609;28;20106;-64
2021/10/22 04:23:05;;;;;;;10.60;5.40;;;;;;;;;;4975213;28;20133;-64
2021/10/22 04:25:34;;;;;;;8.43;5.10;;;;;;;;;;4975437;28;20051;-64
2021/10/22 04:28:01;;;;;;;11.93;5.03;;;;;;;;;;4975377;28;20055;-64
2021/10/22 04:30:28;;;;;;;12.82;4.78;;;;;;;;;;4975245;28;20050;-64
2021/10/22 04:32:55;;;;;;;10.05;4.38;;;;;;;;;;4974971;28;20524;-64
2021/10/22 04:35:22;;;;;;;9.48;4.95;;;;;;;;;;4975091;28;20082;-64
2021/10/22 04:38:02;;;;;;;13.95;4.88;;;;;;;;;;4975264;28;20113;-64
2021/10/22 04:40:33;;;;;;;14.55;5.80;;;;;;;;;;4975090;28;20083;-64
2021/10/22 04:43:05;;;;;;;9.70;4.68;;;;;;;;;;4974754;28;20050;-64
2021/10/22 04:45:34;;;;;;;8.63;4.72;;;;;;;;;;4995354;23;20059;-66
2021/10/22 04:48:01;;;;;;;10.65;4.78;;;;;;;;;;4938564;29;20059;-67
2021/10/22 04:50:28;;;;;;;12.20;4.72;;;;;;;;;;4955648;29;20051;-67
2021/10/22 04:52:55;;;;;;;11.73;4.80;;;;;;;;;;4955521;29;20055;-67
2021/10/22 04:55:23;;;;;;;15.63;4.90;;;;;;;;;;4956182;28;20109;-66
2021/10/22 04:57:51;;;;;;;13.45;4.53;;;;;;;;;;4974897;28;20117;-67
2021/10/22 05:00:18;;;;;;;10.05;5.00;;;;;;;;;;4974636;28;20047;-68
2021/10/22 05:02:44;;;;;;;12.40;4.22;;;;;;;;;;4974573;28;20465;-65
2021/10/22 05:05:12;;;;;;;15.45;5.03;;;;;;;;;;4974579;28;20074;-66
2021/10/22 05:07:39;;;;;;;10.73;4.80;;;;;;;;;;4974494;28;20062;-66
2021/10/22 05:10:06;;;;;;;17.00;4.30;;;;;;;;;;4974715;28;20051;-67
2021/10/22 05:12:33;;;;;;;11.52;4.43;;;;;;;;;;4974347;28;20155;-67
2021/10/22 05:15:01;;;;;;;8.50;4.13;;;;;;;;;;4974426;28;20094;-65
2021/10/22 05:17:27;;;;;;;11.52;4.78;;;;;;;;;;4974429;28;20058;-65
2021/10/22 05:19:54;;;;;;;13.80;4.82;;;;;;;;;;4974331;28;20101;-68
2021/10/22 05:22:21;;;;;;;8.50;3.97;;;;;;;;;;4973350;28;20054;-67
2021/10/22 05:24:48;;;;;;;12.00;3.95;;;;;;;;;;4974398;28;20050;-68
2021/10/22 05:27:14;;;;;;;14.35;3.78;;;;;;;;;;4974114;28;20051;-66
2021/10/22 05:29:41;;;;;;;10.68;4.22;;;;;;;;;;4974305;28;20456;-67
2021/10/22 05:32:07;;;;;;;11.05;4.00;;;;;;;;;;4973865;28;20059;-67
2021/10/22 05:34:34;;;;;;;7.75;3.72;;;;;;;;;;4974203;28;20105;-68
2021/10/22 05:37:02;;;;;;;9.95;4.30;;;;;;;;;;4973950;28;20425;-67
2021/10/22 05:39:29;;;;;;;8.35;4.80;;;;;;;;;;4974001;28;20105;-66
2021/10/22 05:41:56;;;;;;;11.02;4.13;;;;;;;;;;4973865;28;20054;-67
2021/10/22 05:44:23;;;;;;;13.60;4.65;;;;;;;;;;4973896;28;20505;-68
2021/10/22 05:46:53;;;;;;;8.00;4.13;;;;;;;;;;4973740;28;20078;-68
2021/10/22 05:49:22;;;;;;;11.85;4.63;;;;;;;;;;4974039;28;20106;-66
2021/10/22 05:51:50;;;;;;;13.05;4.72;;;;;;;;;;4973690;28;20085;-67
2021/10/22 05:54:17;;;;;;;10.13;5.00;;;;;;;;;;4973640;28;20138;-68
2021/10/22 05:56:43;;;;;;;20.23;5.05;;;;;;;;;;4973616;28;20055;-65
2021/10/22 05:59:10;;;;;;;11.60;5.28;;;;;;;;;;4973534;28;20129;-67
2021/10/22 06:01:37;;;;;;;10.13;4.38;;;;;;;;;;4973455;28;20054;-67
2021/10/22 06:04:04;;;;;;;14.52;5.38;;;;;;;;;;4973580;28;20105;-67
2021/10/22 06:06:30;;;;;;;20.65;5.22;;;;;;;;;;4973571;28;20050;-66
2021/10/22 06:08:59;;;;;;;22.52;5.75;;;;;;;;;;4973491;28;20501;-68
2021/10/22 06:11:26;;;;;;;23.75;5.05;;;;;;;;;;4973425;28;20058;-67
2021/10/22 06:13:52;;;;;;;12.18;5.38;;;;;;;;;;4973429;28;20478;-67
2021/10/22 06:16:19;;;;;;;21.10;5.93;;;;;;;;;;4973235;28;20133;-67
2021/10/22 06:18:48;;;;;;;10.23;5.07;;;;;;;;;;4973480;28;20094;-67
2021/10/22 06:21:27;;;;;;;11.10;4.55;;;;;;;;;;4973627;28;20082;-66
2021/10/22 06:26:24;;;;;;;14.40;5.05;;;;;;;;;;4973431;28;20109;-67
2021/10/22 06:28:52;;;;;;;14.95;5.00;;;;;;;;;;4972184;28;20055;-66
2021/10/22 06:31:19;;;;;;;17.15;5.35;;;;;;;;;;4973037;28;20105;-67
2021/10/22 06:33:46;;;;;;;15.02;6.10;;;;;;;;;;4973140;28;20125;-67
2021/10/22 06:36:12;;;;;;;13.98;5.18;;;;;;;;;;4972971;28;20564;-67
2021/10/22 06:38:39;;;;;;;17.90;5.35;;;;;;;;;;4973206;28;20129;-67
2021/10/22 06:41:08;;;;;;;13.98;5.97;;;;;;;;;;4973147;28;20131;-68
2021/10/22 06:43:39;;;;;;;13.68;5.45;;;;;;;;;;4972855;28;20101;-66
2021/10/22 06:46:07;;;;;;;15.52;5.45;;;;;;;;;;4972696;28;20054;-67
2021/10/22 06:48:35;;;;;;;16.77;6.57;;;;;;;;;;4973147;28;20109;-67
2021/10/22 06:51:02;;;;;;;14.63;5.68;;;;;;;;;;4972876;28;20506;-67
2021/10/22 06:53:28;;;;;;;17.13;5.85;;;;;;;;;;4972769;28;20054;-66
2021/10/22 06:55:55;;;;;;;21.10;8.25;;;;;;;;;;4972935;28;20051;-66
2021/10/22 06:58:21;;;;;;;17.00;8.07;;;;;;;;;;4971629;28;20055;-67
2021/10/22 07:00:49;;;;;;;14.68;6.60;;;;;;;;;;4972839;28;20125;-66
2021/10/22 07:03:22;;;;;;;19.10;7.47;;;;;;;;;;4972583;28;20055;-66
2021/10/22 07:08:25;;;;;;;23.63;7.40;;;;;;;;;;4972784;28;20121;-66
2021/10/22 07:10:53;;;;;;;21.45;7.25;;;;;;;;;;4972736;28;20082;-67
2021/10/22 07:13:21;;;;;;;28.75;9.80;;;;;;;;;;4972440;28;20506;-67
2021/10/22 07:15:47;;;;;;;23.73;7.53;;;;;;;;;;4972665;28;20054;-67
2021/10/22 07:18:15;;;;;;;23.58;8.10;;;;;;;;;;4972596;28;20106;-67
2021/10/22 07:20:42;;;;;;;26.10;6.85;;;;;;;;;;4972924;28;20406;-66
2021/10/22 07:23:10;;;;;;;22.02;7.32;;;;;;;;;;4972394;28;20109;-68
2021/10/22 07:25:39;;;;;;;19.98;6.45;;;;;;;;;;4972652;28;20054;-67
2021/10/22 07:28:13;;;;;;;18.23;6.65;;;;;;;;;;4972536;28;20132;-67
2021/10/22 07:30:44;;;;;;;26.77;6.25;;;;;;;;;;4972712;28;20442;-67
2021/10/22 07:33:12;;;;;;;24.40;6.70;;;;;;;;;;4972222;28;20432;-67
2021/10/22 07:35:41;;;;;;;14.90;5.00;;;;;;;;;;4972584;28;20059;-66
2021/10/22 07:38:11;;;;;;;22.92;5.90;;;;;;;;;;4972511;28;20055;-67
2021/10/22 07:40:40;;;;;;;23.08;6.60;;;;;;;;;;4972698;28;20055;-69
2021/10/22 07:43:07;;;;;;;26.33;5.38;;;;;;;;;;4972144;28;20059;-68
2021/10/22 07:45:34;;;;;;;18.42;5.22;;;;;;;;;;4974266;28;20101;-67
2021/10/22 07:48:01;;;;;;;25.48;5.88;;;;;;;;;;4959003;28;20145;-66
2021/10/22 07:50:28;;;;;;;24.15;4.88;;;;;;;;;;4975899;28;20051;-67
2021/10/22 07:52:54;;;;;;;21.73;6.25;;;;;;;;;;4975907;28;20097;-67
2021/10/22 07:55:22;;;;;;;20.02;4.60;;;;;;;;;;4974644;28;20059;-68
2021/10/22 07:57:48;;;;;;;13.68;3.38;;;;;;;;;;4976235;28;20461;-68
2021/10/22 08:00:15;;;;;;;18.58;3.38;;;;;;;;;;4975723;28;20462;-68
2021/10/22 08:02:42;;;;;;;20.60;3.33;;;;;;;;;;4975715;28;20058;-67
2021/10/22 08:05:09;;;;;;;14.65;3.72;;;;;;;;;;4975983;28;20054;-67
2021/10/22 08:07:38;;;;;;;17.60;3.03;;;;;;;;;;4975775;28;20117;-67
2021/10/22 08:10:06;;;;;;;23.48;3.30;;;;;;;;;;4975604;28;20050;-67
2021/10/22 08:12:33;;;;;;;16.42;2.97;;;;;;;;;;4975497;28;20128;-66
2021/10/22 08:15:00;;;;;;;14.60;2.90;;;;;;;;;;4975362;28;20054;-68
2021/10/22 08:17:27;;;;;;;16.20;3.03;;;;;;;;;;4975454;28;20057;-67
2021/10/22 08:22:30;;;;;;;17.33;2.70;;;;;;;;;;4974124;28;20054;-67
2021/10/22 08:25:03;;;;;;;10.60;2.35;;;;;;;;;;4975461;28;20066;-67
2021/10/22 08:27:38;;;;;;;15.25;3.25;;;;;;;;;;4975228;28;20113;-67
2021/10/22 08:30:08;;;;;;;13.95;2.90;;;;;;;;;;4975350;28;20059;-66
2021/10/22 08:32:35;;;;;;;17.15;3.55;;;;;;;;;;4975141;28;20082;-67
2021/10/22 08:35:03;;;;;;;15.18;2.65;;;;;;;;;;4975283;28;20113;-67
2021/10/22 08:37:31;;;;;;;13.90;2.35;;;;;;;;;;4975149;28;20055;-66
2021/10/22 08:39:57;;;;;;;11.60;3.13;;;;;;;;;;4975123;28;20054;-67
2021/10/22 08:42:25;;;;;;;15.65;2.58;;;;;;;;;;4974823;28;20047;-68
2021/10/22 08:44:53;;;;;;;13.27;2.63;;;;;;;;;;4975182;28;20137;-67
2021/10/22 08:47:24;;;;;;;14.93;3.97;;;;;;;;;;4974821;28;20503;-66
2021/10/22 08:50:01;;;;;;;18.95;2.17;;;;;;;;;;4974049;28;20070;-67
2021/10/22 08:52:28;;;;;;;12.48;2.75;;;;;;;;;;4957706;28;20105;-67
2021/10/22 08:55:11;;;;;;;15.35;2.17;;;;;;;;;;4975041;28;20078;-67
2021/10/22 08:57:45;;;;;;;11.65;2.17;;;;;;;;;;4973717;28;20105;-67
2021/10/22 09:00:17;;;;;;;12.43;3.33;;;;;;;;;;4974520;28;20093;-67
2021/10/22 09:02:46;;;;;;;10.65;2.20;;;;;;;;;;4974589;28;20050;-67
2021/10/22 09:05:16;;;;;;;11.00;2.53;;;;;;;;;;4974643;28;20047;-68
2021/10/22 09:07:50;;;;;;;6.63;2.05;;;;;;;;;;4957434;28;20051;-68
2021/10/22 09:10:25;;;;;;;12.60;2.40;;;;;;;;;;4974540;28;20046;-68
2021/10/22 09:13:03;;;;;;;10.85;2.05;;;;;;;;;;4974367;28;20051;-67
2021/10/22 09:15:41;;;;;;;15.43;2.25;;;;;;;;;;4974563;28;20050;-67
2021/10/22 09:18:26;;;;;;;10.55;2.67;;;;;;;;;;4957482;28;20054;-67
2021/10/22 09:20:54;;;;;;;7.93;1.83;;;;;;;;;;4974386;28;20109;-67
2021/10/22 09:23:24;;;;;;;9.02;2.60;;;;;;;;;;4974075;28;20094;-68
2021/10/22 09:25:51;;;;;;;9.40;2.15;;;;;;;;;;4974228;28;20054;-68
2021/10/22 09:28:27;;;;;;;15.55;2.85;;;;;;;;;;4974218;28;20054;-67
2021/10/22 09:30:53;;;;;;;11.77;2.47;;;;;;;;;;4974317;28;20043;-67
2021/10/22 09:33:25;;;;;;;7.45;1.42;;;;;;;;;;4956778;28;20078;-68
2021/10/22 09:35:55;;;;;;;13.77;2.28;;;;;;;;;;4974132;28;20465;-68
2021/10/22 09:38:29;;;;;;;15.02;2.33;;;;;;;;;;4974153;28;20063;-67
2021/10/22 09:41:05;;;;;;;19.17;2.25;;;;;;;;;;4973980;28;20137;-67
2021/10/22 09:43:40;;;;;;;12.48;1.73;;;;;;;;;;4974257;28;20054;-67
2021/10/22 09:46:13;;;;;;;14.52;2.97;;;;;;;;;;4973771;28;20046;-67
2021/10/22 09:48:47;;;;;;;13.60;1.80;;;;;;;;;;4974061;28;20054;-68
2021/10/22 09:51:24;;;;;;;8.32;2.67;;;;;;;;;;4973744;28;20417;-68
2021/10/22 09:53:52;;;;;;;8.02;1.20;;;;;;;;;;4973865;28;20058;-67
2021/10/22 09:56:21;;;;;;;12.15;2.22;;;;;;;;;;4973529;28;20473;-67
2021/10/22 09:59:03;;;;;;;6.68;1.75;;;;;;;;;;4973796;28;20054;-67
2021/10/22 10:01:41;;;;;;;8.57;1.77;;;;;;;;;;4973644;28;20054;-69
2021/10/22 10:04:10;;;;;;;8.55;2.22;;;;;;;;;;4973627;28;20051;-67
2021/10/22 10:06:58;;;;;;;8.32;2.13;;;;;;;;;;4973675;28;20502;-67
2021/10/22 10:09:28;;;;;;;10.80;1.45;;;;;;;;;;4973072;28;20490;-67
2021/10/22 10:11:57;;;;;;;5.65;2.42;;;;;;;;;;4973304;28;20399;-67
2021/10/22 10:14:26;;;;;;;9.55;1.60;;;;;;;;;;4973482;28;20054;-67
2021/10/22 10:16:53;;;;;;;4.90;0.98;;;;;;;;;;4973343;28;20089;-68
2021/10/22 10:19:46;;;;;;;8.40;1.50;;;;;;;;;;4973311;28;20047;-67
2021/10/22 10:22:14;;;;;;;7.50;1.00;;;;;;;;;;4973101;28;20468;-67
2021/10/22 10:24:48;;;;;;;7.32;1.33;;;;;;;;;;4956207;28;20105;-67
2021/10/22 10:27:23;;;;;;;5.50;1.30;;;;;;;;;;4956106;28;20054;-67
2021/10/22 10:29:51;;;;;;;5.18;1.77;;;;;;;;;;4973342;28;20051;-67
2021/10/22 10:32:20;;;;;;;7.35;1.27;;;;;;;;;;4972952;28;20113;-67
2021/10/22 10:34:54;;;;;;;7.95;1.35;;;;;;;;;;4973215;28;20466;-67
2021/10/22 10:37:35;;;;;;;5.43;1.33;;;;;;;;;;4972944;28;20489;-67
2021/10/22 10:40:24;;;;;;;3.00;1.08;;;;;;;;;;4973347;28;20137;-66
2021/10/22 10:42:55;;;;;;;8.18;1.20;;;;;;;;;;4973193;28;20110;-68
2021/10/22 10:45:23;;;;;;;4.97;1.25;;;;;;;;;;4972896;28;20082;-67
2021/10/22 10:48:06;;;;;;;4.65;1.10;;;;;;;;;;4978170;23;20055;-64
2021/10/22 10:50:41;;;;;;;5.05;1.20;;;;;;;;;;4953873;29;20063;-64
2021/10/22 10:53:09;;;;;;;5.25;1.13;;;;;;;;;;4953383;29;20407;-64
2021/10/22 10:55:43;;;;;;;6.28;1.27;;;;;;;;;;4921066;29;20059;-65
2021/10/22 10:58:09;;;;;;;6.07;1.42;;;;;;;;;;4933271;29;20558;-64
2021/10/22 11:00:39;;;;;;;7.20;1.45;;;;;;;;;;4934514;29;20051;-64
2021/10/22 11:03:16;;;;;;;4.32;1.00;;;;;;;;;;4934320;29;20055;-65
2021/10/22 11:05:43;;;;;;;8.23;1.10;;;;;;;;;;4933091;29;20063;-65
2021/10/22 11:08:40;;;;;;;6.68;1.20;;;;;;;;;;4933317;29;20523;-65
2021/10/22 11:11:16;;;;;;;7.43;1.25;;;;;;;;;;4926265;29;20044;-64
2021/10/22 11:13:44;;;;;;;3.30;0.75;;;;;;;;;;4934418;29;20548;-65
2021/10/22 11:19:00;;;;;;;3.47;0.80;;;;;;;;;;4934511;29;20052;-65
2021/10/22 11:21:28;;;;;;;4.72;0.95;;;;;;;;;;4936452;29;20052;-64
2021/10/22 11:23:57;;;;;;;4.20;1.00;;;;;;;;;;4936828;29;20240;-65
2021/10/22 11:26:24;;;;;;;4.20;0.95;;;;;;;;;;4938064;29;20056;-65
2021/10/22 11:28:55;;;;;;;5.85;0.82;;;;;;;;;;4921206;29;20063;-65
2021/10/22 11:31:43;;;;;;;3.80;0.68;;;;;;;;;;4920927;29;20055;-65
2021/10/22 11:34:22;;;;;;;3.75;0.82;;;;;;;;;;4936436;29;20549;-65
2021/10/22 11:37:08;;;;;;;3.65;0.82;;;;;;;;;;4936536;29;20138;-65
2021/10/22 11:39:39;;;;;;;3.80;0.85;;;;;;;;;;4936664;29;20047;-65
2021/10/22 11:42:29;;;;;;;2.63;0.70;;;;;;;;;;4937458;29;20051;-65
2021/10/22 11:45:14;;;;;;;5.00;1.00;;;;;;;;;;4937803;29;20107;-65
2021/10/22 11:47:48;;;;;;;4.70;1.15;;;;;;;;;;4937548;29;20471;-65
2021/10/22 11:50:24;;;;;;;5.95;1.10;;;;;;;;;;4921239;29;20056;-65
2021/10/22 11:53:01;;;;;;;4.45;1.15;;;;;;;;;;4937370;29;20107;-65
2021/10/22 11:55:28;;;;;;;3.55;0.90;;;;;;;;;;4937639;29;20055;-65
2021/10/22 11:57:56;;;;;;;3.45;1.30;;;;;;;;;;4920439;29;20052;-65
2021/10/22 12:00:25;;;;;;;2.40;1.63;;;;;;;;;;4936095;29;20060;-65
2021/10/22 12:02:52;;;;;;;5.13;0.85;;;;;;;;;;4936059;29;20533;-65
2021/10/22 12:05:20;;;;;;;3.97;1.10;;;;;;;;;;4937289;29;20051;-65
2021/10/22 12:07:49;;;;;;;2.55;0.80;;;;;;;;;;4920407;29;20059;-65
2021/10/22 12:10:16;;;;;;;5.10;1.20;;;;;;;;;;4920354;29;20055;-65
2021/10/22 12:12:46;;;;;;;4.43;1.25;;;;;;;;;;4935959;29;20400;-65
2021/10/22 12:15:26;;;;;;;9.27;3.05;;;;;;;;;;4935767;29;20107;-65
2021/10/22 12:17:57;;;;;;;5.38;2.70;;;;;;;;;;4935919;29;20107;-66
2021/10/22 12:20:24;;;;;;;3.58;0.82;;;;;;;;;;4937036;29;20064;-65
2021/10/22 12:22:59;;;;;;;3.28;0.90;;;;;;;;;;4920013;29;20111;-65
2021/10/22 12:25:27;;;;;;;4.70;0.85;;;;;;;;;;4935909;29;20438;-65
2021/10/22 12:27:56;;;;;;;7.60;1.90;;;;;;;;;;4935765;29;20511;-65
2021/10/22 12:30:23;;;;;;;3.88;1.23;;;;;;;;;;4935306;29;20055;-65
2021/10/22 12:32:55;;;;;;;4.68;1.27;;;;;;;;;;4935533;29;20106;-65
2021/10/22 12:35:34;;;;;;;5.05;1.10;;;;;;;;;;4935562;29;20052;-65
2021/10/22 12:38:11;;;;;;;7.00;1.38;;;;;;;;;;4936719;29;20055;-65
2021/10/22 12:40:51;;;;;;;5.38;1.20;;;;;;;;;;4920110;29;20083;-65
2021/10/22 12:43:19;;;;;;;9.77;2.20;;;;;;;;;;4936480;29;20043;-65
2021/10/22 12:45:53;;;;;;;3.85;1.10;;;;;;;;;;4936558;29;20056;-66
2021/10/22 12:48:23;;;;;;;4.35;1.45;;;;;;;;;;4936877;29;20055;-65
2021/10/22 12:50:50;;;;;;;5.93;1.63;;;;;;;;;;4935382;29;20498;-65
2021/10/22 12:53:26;;;;;;;3.72;0.93;;;;;;;;;;4919457;29;20051;-65
2021/10/22 12:56:09;;;;;;;3.60;1.00;;;;;;;;;;4936464;29;20099;-65
2021/10/22 12:58:37;;;;;;;;;;;;;;;;;;4937163;29;20059;-65
2021/10/22 13:01:37;;;;;;;6.05;1.00;;;;;;;;;;4935093;29;19970;-65
2021/10/22 13:04:08;;;;;;;3.97;1.80;;;;;;;;;;4917716;29;20056;-65
2021/10/22 13:07:06;;;;;;;4.50;1.02;;;;;;;;;;4919525;29;20062;-65
2021/10/22 13:09:44;;;;;;;7.97;0.93;;;;;;;;;;4936474;29;20059;-65
2021/10/22 13:23:04;;;;;;;4.40;1.08;;;;;;;;;;4934649;29;20056;-65
2021/10/22 13:25:31;;;;;;;4.00;1.20;;;;;;;;;;4934568;29;20055;-65
2021/10/22 13:27:57;;;;;;;6.93;1.15;;;;;;;;;;4935782;29;20063;-65
2021/10/22 13:30:35;;;;;;;5.15;0.98;;;;;;;;;;4934549;29;20059;-65
2021/10/22 13:33:09;;;;;;;5.97;1.58;;;;;;;;;;4935623;29;20047;-65
2021/10/22 13:35:36;;;;;;;6.45;1.45;;;;;;;;;;4935792;29;20119;-65
2021/10/22 13:38:03;;;;;;;5.50;2.20;;;;;;;;;;4934384;29;20451;-65
2021/10/22 13:40:29;;;;;;;6.70;1.95;;;;;;;;;;4935856;29;20130;-65
2021/10/22 13:42:56;;;;;;;5.72;2.40;;;;;;;;;;4934986;29;20487;-65
2021/10/22 13:45:23;;;;;;;10.52;2.45;;;;;;;;;;4935545;29;20130;-65
2021/10/22 13:47:50;;;;;;;5.70;1.08;;;;;;;;;;4935800;29;20055;-65
2021/10/22 13:50:17;;;;;;;4.75;1.48;;;;;;;;;;4935358;29;20051;-65
2021/10/22 13:52:44;;;;;;;5.25;1.00;;;;;;;;;;4918237;29;20106;-65
2021/10/22 13:55:11;;;;;;;6.95;1.38;;;;;;;;;;4935329;29;20051;-65
2021/10/22 13:57:38;;;;;;;6.28;1.50;;;;;;;;;;4934216;29;20455;-65
2021/10/22 14:00:05;;;;;;;4.43;1.30;;;;;;;;;;4918387;29;20430;-65
2021/10/22 14:02:32;;;;;;;6.72;1.10;;;;;;;;;;4933863;29;20116;-65
2021/10/22 14:04:59;;;;;;;5.07;1.10;;;;;;;;;;4933999;29;20549;-65
2021/10/22 14:07:25;;;;;;;6.72;1.70;;;;;;;;;;4935063;29;20107;-65
2021/10/22 14:09:54;;;;;;;5.10;1.05;;;;;;;;;;4935184;29;20056;-65
2021/10/22 14:12:27;;;;;;;4.88;1.15;;;;;;;;;;4934713;29;20055;-65
2021/10/22 14:15:11;;;;;;;5.25;1.50;;;;;;;;;;4935116;29;20430;-65
2021/10/22 14:17:56;;;;;;;5.57;1.23;;;;;;;;;;4920543;29;20059;-65
2021/10/22 14:31:12;;;;;;;7.45;1.60;;;;;;;;;;4935038;29;20083;-65
2021/10/22 14:33:39;;;;;;;3.63;0.85;;;;;;;;;;4933705;29;20519;-65
2021/10/22 14:36:05;;;;;;;4.35;1.10;;;;;;;;;;4934673;29;20052;-65
2021/10/22 14:38:33;;;;;;;5.47;1.30;;;;;;;;;;4934942;29;20052;-65
2021/10/22 14:41:00;;;;;;;3.00;1.63;;;;;;;;;;4917761;29;20498;-65
2021/10/22 14:43:40;;;;;;;2.75;0.98;;;;;;;;;;4934437;29;20499;-66
2021/10/22 14:48:59;;;;;;;8.00;1.88;;;;;;;;;;4934743;29;20093;-65
2021/10/22 14:52:18;;;;;;;4.93;0.77;;;;;;;;;;4933342;29;20110;-65
2021/10/22 14:54:19;;;;;;;3.47;1.10;;;;;;;;;;4923596;29;20055;-65
2021/10/22 14:56:46;;;;;;;4.40;1.27;;;;;;;;;;4934695;29;20056;-65
2021/10/22 14:59:13;;;;;;;4.47;1.35;;;;;;;;;;4934417;29;20062;-65
2021/10/22 15:01:40;;;;;;;5.25;1.10;;;;;;;;;;4933229;29;20135;-65
2021/10/22 15:04:07;;;;;;;5.35;1.60;;;;;;;;;;4917633;29;20055;-65
2021/10/22 15:06:35;;;;;;;4.07;1.02;;;;;;;;;;4934467;29;20499;-65
2021/10/22 15:09:03;;;;;;;4.80;1.30;;;;;;;;;;4917470;29;20071;-65
2021/10/22 15:11:30;;;;;;;3.95;1.13;;;;;;;;;;4934471;29;20052;-65
2021/10/22 15:13:57;;;;;;;6.47;1.30;;;;;;;;;;4917655;29;20471;-65
2021/10/22 15:16:24;;;;;;;3.38;1.10;;;;;;;;;;4934344;29;20052;-65
2021/10/22 15:18:52;;;;;;;5.57;1.40;;;;;;;;;;4934515;29;20099;-66
2021/10/22 15:21:19;;;;;;;4.72;1.80;;;;;;;;;;4934275;29;20103;-65
2021/10/22 15:23:47;;;;;;;6.70;2.47;;;;;;;;;;4934340;29;20051;-65
2021/10/22 15:26:14;;;;;;;9.25;1.95;;;;;;;;;;4917487;29;20463;-65
2021/10/22 15:28:41;;;;;;;7.53;3.15;;;;;;;;;;4933168;29;20051;-65
2021/10/22 15:31:08;;;;;;;5.07;2.40;;;;;;;;;;4933031;29;20518;-65
2021/10/22 15:33:35;;;;;;;2.78;1.30;;;;;;;;;;4934116;29;20047;-65